Time;durP1;ratioP1;P1;durP2;ratioP2;P2;SDS_P1;SDS_P2;PMS_P1;PMS_P2;Temp;Humidity;BMP_temperature;BMP_pressure;BME280_temperature;BME280_humidity;BME280_pressure;Samples;Min_cycle;Max_cycle;Signal;HPM_P1;HPM_P2
2022/09/20 03:00:53;;;;;;;3.75;3.42;;;;;;;10.78;82.38;97096.13;3964613;23;20422;-81
2022/09/20 03:03:30;;;;;;;7.05;3.65;;;;;;;10.81;80.83;97101.03;4997253;28;20050;-82
2022/09/20 03:06:08;;;;;;;6.35;3.90;;;;;;;10.80;79.83;97100.22;4999140;28;20041;-82
2022/09/20 03:08:43;;;;;;;6.43;3.88;;;;;;;10.81;80.22;97098.41;4999152;28;20059;-82
2022/09/20 03:11:19;;;;;;;6.13;3.95;;;;;;;10.86;80.77;97103.94;4998907;28;20038;-83
2022/09/20 03:14:05;;;;;;;4.63;3.72;;;;;;;10.90;80.03;97105.22;4999308;28;20080;-82
2022/09/20 03:37:01;;;;;;;3.88;3.05;;;;;;;11.00;81.92;97100.59;5857674;23;20045;-83
2022/09/20 03:40:00;;;;;;;4.03;3.20;;;;;;;11.00;80.79;97103.22;5003121;28;20038;-83
2022/09/20 04:39:51;;;;;;;4.97;3.28;;;;;;;10.99;78.52;97117.22;6040930;22;4096908;-79
2022/09/20 04:43:33;;;;;;;4.55;3.15;;;;;;;11.00;79.07;97115.44;6216864;23;20033;-85
2022/09/20 04:50:12;;;;;;;6.50;2.92;;;;;;;10.95;79.26;97118.56;6177069;23;20016;-84
2022/09/20 04:53:11;;;;;;;6.30;3.83;;;;;;;10.94;79.65;97127.38;6165048;23;20100;-78
2022/09/20 04:55:48;;;;;;;;;;;;;;;10.93;78.64;97129.19;6159896;23;20020;-79
2022/09/20 04:58:54;;;;;;;5.97;3.50;;;;;;;10.92;79.09;97134.56;6152308;23;20766;-77
2022/09/20 05:02:13;;;;;;;6.57;3.67;;;;;;;10.90;79.63;97136.53;6135440;23;20031;-77
2022/09/20 05:05:14;;;;;;;9.50;3.50;;;;;;;10.90;79.35;97136.53;6155366;23;20021;-77
2022/09/20 05:08:24;;;;;;;8.95;3.60;;;;;;;10.90;78.89;97141.75;6155014;23;20029;-77
2022/09/20 05:11:29;;;;;;;6.07;3.25;;;;;;;10.89;78.36;97142.75;6153310;23;20354;-77
2022/09/20 05:14:15;;;;;;;7.13;3.28;;;;;;;10.92;79.19;97145.00;6154986;23;20017;-77
2022/09/20 05:17:01;;;;;;;6.72;4.18;;;;;;;10.92;77.43;97137.19;6153347;23;20457;-77
2022/09/20 05:19:38;;;;;;;21.08;11.27;;;;;;;10.96;78.31;97142.88;6153953;23;20061;-78
2022/09/20 05:22:25;;;;;;;14.30;7.57;;;;;;;11.00;79.88;97141.53;6153144;23;20026;-78
2022/09/20 05:25:26;;;;;;;6.88;4.63;;;;;;;11.04;80.91;97148.88;6154499;23;20033;-77
2022/09/20 05:28:01;;;;;;;9.00;4.10;;;;;;;11.02;79.66;97150.00;6155786;23;20021;-79
2022/09/20 05:30:36;;;;;;;6.45;3.58;;;;;;;10.99;78.77;97150.34;6154906;23;20018;-78
2022/09/20 05:33:15;;;;;;;6.53;4.13;;;;;;;10.99;80.10;97148.56;6155286;23;20100;-78
2022/09/20 05:35:53;;;;;;;9.75;4.30;;;;;;;10.96;78.41;97154.13;6155759;23;20366;-78
2022/09/20 05:38:27;;;;;;;8.35;4.15;;;;;;;10.92;77.89;97156.25;6155694;23;20026;-78
2022/09/20 05:41:13;;;;;;;11.90;4.38;;;;;;;10.90;77.60;97153.00;6156465;23;20647;-79
2022/09/20 05:43:52;;;;;;;6.25;4.05;;;;;;;10.88;77.52;97154.16;6156991;23;20018;-79
2022/09/20 05:46:33;;;;;;;8.95;4.45;;;;;;;10.89;78.39;97150.59;6155595;23;20485;-78
2022/09/20 05:49:11;;;;;;;7.80;4.47;;;;;;;10.89;76.75;97155.81;6154465;23;20017;-78
2022/09/20 05:51:59;;;;;;;9.80;5.20;;;;;;;10.87;76.65;97157.75;6148769;23;20752;-78
2022/09/20 05:55:00;;;;;;;7.65;5.47;;;;;;;10.88;77.98;97164.59;6155066;23;20018;-78
2022/09/20 05:57:39;;;;;;;9.95;5.25;;;;;;;10.83;78.40;97165.09;6155188;23;20048;-78
2022/09/20 06:00:14;;;;;;;10.82;5.10;;;;;;;10.82;77.26;97168.72;6153499;23;20018;-78
2022/09/20 06:02:52;;;;;;;7.88;4.60;;;;;;;10.83;77.81;97172.13;6155114;23;20385;-77
2022/09/20 06:05:32;;;;;;;7.72;4.70;;;;;;;10.81;76.97;97174.09;6154111;23;20018;-77
2022/09/20 06:08:16;;;;;;;8.52;4.75;;;;;;;10.80;77.26;97177.66;6154493;23;20104;-79
2022/09/20 06:11:00;;;;;;;7.60;4.75;;;;;;;10.79;78.87;97181.28;6153306;23;20081;-78
2022/09/20 06:13:49;;;;;;;7.57;4.65;;;;;;;10.79;78.80;97176.88;6154849;23;20577;-78
2022/09/20 06:16:28;;;;;;;7.65;4.72;;;;;;;10.81;79.17;97179.31;6155254;23;20094;-79
2022/09/20 06:19:04;;;;;;;7.65;4.78;;;;;;;10.77;78.14;97180.63;6168305;23;20061;-79
2022/09/20 06:21:45;;;;;;;7.30;5.28;;;;;;;10.75;78.75;97185.19;6170602;23;20021;-78
2022/09/20 06:24:29;;;;;;;6.30;4.93;;;;;;;10.75;79.98;97178.19;6156100;23;20056;-78
2022/09/20 06:26:59;;;;;;;7.03;5.60;;;;;;;10.76;78.32;97181.59;6155831;23;20108;-77
2022/09/20 06:29:32;;;;;;;9.48;5.30;;;;;;;10.77;78.87;97180.63;6155166;23;20453;-77
2022/09/20 06:32:01;;;;;;;8.85;5.40;;;;;;;10.81;78.80;97181.94;6153701;23;20104;-78
2022/09/20 06:34:30;;;;;;;11.15;5.20;;;;;;;10.80;78.80;97188.09;6155427;23;20147;-78
2022/09/20 06:42:45;;;;;;;9.48;4.75;;;;;;;10.72;76.49;97192.38;6154626;23;20104;-78
2022/09/20 06:45:12;;;;;;;7.63;4.40;;;;;;;10.72;76.01;97197.59;6155299;23;20029;-78
2022/09/20 06:47:41;;;;;;;10.82;4.43;;;;;;;10.72;76.34;97191.56;6154554;23;20021;-78
2022/09/20 06:50:15;;;;;;;12.18;4.50;;;;;;;10.73;77.02;97193.19;6153689;23;20041;-80
2022/09/20 06:52:44;;;;;;;7.63;4.22;;;;;;;10.76;77.01;97195.47;6161717;23;20076;-81
2022/09/20 06:55:18;;;;;;;8.43;4.55;;;;;;;10.78;75.35;97205.72;6162869;23;20045;-80
2022/09/20 06:57:46;;;;;;;9.73;4.30;;;;;;;10.79;75.42;97200.34;6160553;23;20021;-81
2022/09/20 07:00:15;;;;;;;8.55;4.28;;;;;;;10.82;75.04;97199.19;6160223;23;20469;-81
2022/09/20 07:02:44;;;;;;;9.40;4.65;;;;;;;10.85;76.90;97197.06;6161157;23;20484;-81
2022/09/20 07:05:14;;;;;;;13.88;6.93;;;;;;;10.89;77.09;97198.38;6159401;23;20017;-81
2022/09/20 07:07:42;;;;;;;11.18;5.97;;;;;;;10.91;76.52;97199.00;6160530;23;20101;-81
2022/09/20 07:10:12;;;;;;;7.78;5.40;;;;;;;10.93;75.91;97201.44;6167437;23;20052;-82
2022/09/20 07:12:42;;;;;;;8.15;4.72;;;;;;;10.96;74.91;97195.91;6182705;23;20029;-82
2022/09/20 07:15:27;;;;;;;8.90;5.38;;;;;;;11.04;74.79;97195.88;6181943;23;20048;-82
2022/09/20 07:18:12;;;;;;;16.65;5.28;;;;;;;11.12;74.93;97198.41;6169479;23;20052;-82
2022/09/20 07:21:09;;;;;;;6.55;4.60;;;;;;;11.20;75.33;97199.38;6169371;23;20022;-82
2022/09/20 07:23:44;;;;;;;7.43;4.60;;;;;;;11.24;74.83;97204.09;6169673;23;20072;-82
2022/09/20 07:26:19;;;;;;;12.40;5.00;;;;;;;11.30;72.93;97206.03;6168621;23;20014;-82
2022/09/20 07:28:48;;;;;;;9.40;4.28;;;;;;;11.32;73.27;97204.03;6166732;23;20176;-81
2022/09/20 07:31:20;;;;;;;6.32;4.00;;;;;;;11.42;74.25;97203.84;6162324;23;20052;-81
2022/09/20 07:33:58;;;;;;;10.93;4.13;;;;;;;11.61;73.00;97202.59;6162597;23;20025;-81
2022/09/20 07:36:26;;;;;;;7.90;3.67;;;;;;;11.77;71.98;97209.50;6161245;23;20028;-81
2022/09/20 07:38:54;;;;;;;8.38;3.17;;;;;;;11.90;71.75;97217.59;6161771;23;20037;-81
2022/09/20 07:41:22;;;;;;;9.07;3.58;;;;;;;12.03;72.65;97213.59;6160589;23;20022;-81
2022/09/20 07:43:51;;;;;;;7.40;4.05;;;;;;;12.14;72.37;97221.00;6160636;23;20493;-81
2022/09/20 07:46:21;;;;;;;4.68;3.03;;;;;;;12.33;71.96;97223.13;6161983;23;20406;-81
2022/09/20 07:48:48;;;;;;;9.07;3.92;;;;;;;12.54;69.89;97229.47;6161100;23;20112;-81
2022/09/20 07:51:18;;;;;;;6.25;2.92;;;;;;;12.73;68.80;97233.38;6165307;23;20076;-82
2022/09/20 07:53:50;;;;;;;25.08;14.38;;;;;;;12.89;68.69;97232.41;6164810;23;20028;-81
2022/09/20 07:56:20;;;;;;;;;;;;;;;13.04;68.49;97230.59;6169358;23;20404;-82
2022/09/20 07:58:48;;;;;;;22.45;13.05;;;;;;;13.13;68.17;97229.50;6168028;23;19916;-81
2022/09/20 08:01:22;;;;;;;11.63;4.97;;;;;;;13.16;65.75;97228.31;6167147;23;20033;-82
2022/09/20 08:03:52;;;;;;;9.27;4.32;;;;;;;13.19;67.47;97231.38;6166262;23;20021;-81
2022/09/20 08:06:23;;;;;;;4.95;3.17;;;;;;;13.22;65.58;97237.25;6162679;23;20406;-80
2022/09/20 08:08:51;;;;;;;5.03;2.72;;;;;;;13.16;66.65;97229.16;6158047;23;20129;-80
2022/09/20 08:11:24;;;;;;;7.70;2.88;;;;;;;13.15;67.17;97231.94;6156070;23;20068;-80
2022/09/20 08:13:55;;;;;;;7.07;2.70;;;;;;;13.24;66.82;97240.50;6158169;23;20033;-80
2022/09/20 08:16:38;;;;;;;5.13;2.30;;;;;;;13.38;66.68;97244.94;6157702;23;20024;-80
2022/09/20 08:19:06;;;;;;;2.40;1.70;;;;;;;13.50;64.50;97246.09;6157180;23;20028;-80
2022/09/20 08:21:37;;;;;;;7.65;2.15;;;;;;;13.63;63.07;97247.25;6155855;23;20026;-79
2022/09/20 08:24:05;;;;;;;8.80;2.35;;;;;;;13.77;62.71;97238.50;6156806;23;20049;-80
2022/09/20 08:26:34;;;;;;;4.57;1.95;;;;;;;13.85;61.98;97243.66;6156761;23;20052;-80
2022/09/20 08:29:04;;;;;;;7.28;2.72;;;;;;;13.89;63.46;97242.28;6156465;23;20025;-80
2022/09/20 08:31:35;;;;;;;4.25;1.80;;;;;;;13.97;63.44;97252.66;6155574;23;20025;-81
2022/09/20 08:34:05;;;;;;;9.83;1.53;;;;;;;14.11;61.47;97248.34;6157332;23;20028;-79
2022/09/20 08:36:36;;;;;;;4.63;1.95;;;;;;;14.23;61.04;97256.50;6158379;23;20267;-80
2022/09/20 08:39:04;;;;;;;5.07;1.98;;;;;;;14.26;60.20;97255.34;6158074;23;20053;-81
2022/09/20 08:41:55;;;;;;;4.18;1.92;;;;;;;14.22;59.66;97252.25;6156875;23;20022;-79
2022/09/20 08:44:27;;;;;;;6.93;2.08;;;;;;;14.14;60.54;97252.38;6159175;23;20656;-80
2022/09/20 08:47:05;;;;;;;5.05;2.40;;;;;;;14.04;59.70;97251.88;6159004;23;20021;-80
2022/09/20 08:49:33;;;;;;;20.17;11.30;;;;;;;13.98;60.95;97254.25;6158715;23;20057;-80
2022/09/20 08:52:04;;;;;;;20.88;11.57;;;;;;;14.28;59.67;97256.75;6157231;23;20488;-80
2022/09/20 08:54:37;;;;;;;6.53;3.10;;;;;;;14.99;57.06;97255.88;6157981;23;20080;-80
2022/09/20 08:57:13;;;;;;;3.80;1.52;;;;;;;15.71;56.76;97256.41;6158611;23;20018;-80
2022/09/20 08:59:40;;;;;;;4.35;1.42;;;;;;;16.04;55.82;97246.78;6158396;23;20049;-80
2022/09/20 09:02:15;;;;;;;9.73;2.65;;;;;;;16.02;53.85;97261.13;6157066;23;20544;-80
2022/09/20 09:04:43;;;;;;;6.10;2.60;;;;;;;15.83;54.60;97253.03;6159638;23;20021;-81
2022/09/20 09:07:15;;;;;;;5.60;2.00;;;;;;;15.63;55.52;97252.09;6158829;23;20327;-80
2022/09/20 09:09:46;;;;;;;11.77;3.22;;;;;;;15.48;57.05;97260.16;6158278;23;20021;-81
2022/09/20 09:12:19;;;;;;;7.47;2.42;;;;;;;15.24;56.35;97264.91;6157108;23;20017;-81
2022/09/20 09:14:51;;;;;;;3.85;1.70;;;;;;;14.96;57.05;97258.91;6158742;23;20024;-80
2022/09/20 09:17:20;;;;;;;8.27;2.13;;;;;;;14.74;57.80;97258.16;6159462;23;20028;-81
2022/09/20 09:19:56;;;;;;;6.20;2.65;;;;;;;14.59;58.84;97266.13;6160198;23;20025;-80
2022/09/20 09:22:31;;;;;;;5.53;1.80;;;;;;;14.40;57.59;97265.72;6159430;23;20032;-79
2022/09/20 09:25:28;;;;;;;7.03;1.92;;;;;;;14.22;59.86;97268.00;6158481;23;20044;-80
2022/09/20 09:27:57;;;;;;;11.18;4.22;;;;;;;14.17;59.66;97262.53;6157244;23;20077;-80
2022/09/20 09:30:27;;;;;;;19.70;8.68;;;;;;;14.39;58.00;97263.31;6155360;23;20422;-80
2022/09/20 09:33:17;;;;;;;19.30;10.45;;;;;;;14.82;58.54;97261.44;6157570;23;20025;-80
2022/09/20 09:35:52;;;;;;;8.43;2.75;;;;;;;14.93;57.26;97254.00;6159187;23;20017;-80
2022/09/20 09:38:23;;;;;;;9.07;1.70;;;;;;;15.01;56.69;97253.88;6159296;23;20021;-80
2022/09/20 09:40:53;;;;;;;7.05;2.03;;;;;;;15.27;55.22;97247.13;6157593;23;20024;-79
2022/09/20 09:43:25;;;;;;;4.25;1.15;;;;;;;15.63;54.44;97245.06;6176739;23;20113;-79
2022/09/20 09:45:54;;;;;;;;;;;;;;;16.15;53.67;97239.31;6175823;23;20037;-79
2022/09/20 09:48:25;;;;;;;3.50;1.13;;;;;;;17.81;48.59;97235.47;6172990;23;19944;-80
2022/09/20 09:51:09;;;;;;;4.53;1.27;;;;;;;19.33;45.38;97233.38;6162098;23;20462;-81
2022/09/20 09:53:39;;;;;;;7.10;1.58;;;;;;;20.54;42.35;97232.50;6159124;23;20022;-79
2022/09/20 09:56:26;;;;;;;8.60;2.92;;;;;;;21.85;39.05;97229.41;6177244;23;20041;-79
2022/09/20 09:59:11;;;;;;;4.22;1.38;;;;;;;21.66;37.33;97222.69;6182660;23;20025;-79
2022/09/20 10:01:47;;;;;;;7.45;3.03;;;;;;;20.91;40.40;97227.00;6165642;23;20021;-79
2022/09/20 10:04:19;;;;;;;3.78;1.05;;;;;;;20.26;40.60;97228.66;6159589;23;20474;-80
2022/09/20 10:06:56;;;;;;;5.40;1.73;;;;;;;19.87;42.16;97224.78;6158136;23;20048;-79
2022/09/20 10:09:40;;;;;;;6.25;1.75;;;;;;;20.27;41.88;97229.47;6158303;23;20045;-81
2022/09/20 10:12:22;;;;;;;4.20;1.80;;;;;;;21.75;38.60;97231.88;6157320;23;20043;-80
2022/09/20 10:15:01;;;;;;;5.80;2.05;;;;;;;23.36;37.77;97227.72;6158729;23;20041;-80
2022/09/20 10:17:41;;;;;;;9.75;2.70;;;;;;;23.88;35.82;97228.28;6158603;23;20028;-79
2022/09/20 10:20:27;;;;;;;3.40;1.55;;;;;;;23.87;33.46;97222.16;6157720;23;20017;-80
2022/09/20 10:23:07;;;;;;;2.42;1.08;;;;;;;23.71;31.99;97223.84;6158724;23;20060;-81
2022/09/20 10:26:05;;;;;;;3.08;0.60;;;;;;;23.60;32.02;97228.25;6158740;23;20116;-80
2022/09/20 10:28:49;;;;;;;6.07;1.35;;;;;;;23.07;37.62;97234.25;6159458;23;20029;-81
2022/09/20 10:31:31;;;;;;;5.07;0.70;;;;;;;22.33;34.19;97229.97;6158597;23;20025;-80
2022/09/20 10:34:18;;;;;;;1.73;0.93;;;;;;;21.66;38.26;97231.44;6159206;23;20409;-80
2022/09/20 10:36:51;;;;;;;3.95;0.88;;;;;;;22.65;35.52;97226.72;6158702;23;20071;-80
2022/09/20 10:39:25;;;;;;;5.80;1.00;;;;;;;24.71;32.34;97222.56;6167360;23;20245;-82
2022/09/20 10:45:07;;;;;;;6.45;1.20;;;;;;;28.93;25.54;97222.41;6169641;23;20170;-81
2022/09/20 10:47:48;;;;;;;3.17;0.90;;;;;;;29.75;23.02;97216.84;6162400;23;20048;-81
2022/09/20 10:50:28;;;;;;;4.72;1.00;;;;;;;30.12;22.76;97220.59;6163293;23;20112;-81
2022/09/20 10:53:07;;;;;;;3.00;0.90;;;;;;;29.51;24.38;97213.38;6160117;23;20069;-82
2022/09/20 10:55:44;;;;;;;3.47;0.68;;;;;;;28.42;25.00;97218.28;6166635;23;20045;-82
2022/09/20 10:58:54;;;;;;;2.47;0.65;;;;;;;26.86;27.24;97215.88;6157975;23;20024;-81
2022/09/20 11:01:30;;;;;;;3.13;0.68;;;;;;;27.80;26.10;97215.22;6159766;23;20025;-81
2022/09/20 11:04:18;;;;;;;2.08;0.82;;;;;;;29.54;23.37;97210.94;6168913;23;20022;-82
2022/09/20 11:06:54;;;;;;;4.47;0.88;;;;;;;30.82;22.88;97208.13;6167091;23;20057;-82
2022/09/20 11:09:26;;;;;;;2.70;0.60;;;;;;;31.13;22.58;97213.75;6161109;23;20045;-81
2022/09/20 11:11:59;;;;;;;;;;;;;;;30.32;22.62;97207.94;6157053;23;20029;-82
2022/09/20 11:14:35;;;;;;;3.15;1.05;;;;;;;28.54;24.07;97210.69;6158755;23;19988;-82
2022/09/20 11:17:08;;;;;;;3.45;0.65;;;;;;;26.88;26.63;97213.72;6162001;23;20077;-82
2022/09/20 11:19:47;;;;;;;1.63;0.70;;;;;;;25.52;25.83;97210.69;6159027;23;20021;-82
2022/09/20 11:22:18;;;;;;;3.17;0.70;;;;;;;24.44;28.88;97213.56;6156624;23;20029;-81
2022/09/20 11:24:51;;;;;;;3.90;1.05;;;;;;;23.52;31.83;97215.38;6157477;23;20068;-82
2022/09/20 11:27:24;;;;;;;1.42;0.60;;;;;;;22.72;31.82;97222.03;6159306;23;20032;-81
2022/09/20 11:29:59;;;;;;;3.20;0.70;;;;;;;22.01;31.69;97214.53;6159517;23;20025;-82
2022/09/20 11:32:35;;;;;;;3.53;0.63;;;;;;;21.48;35.16;97223.69;6157345;23;20013;-81
2022/09/20 11:35:22;;;;;;;4.35;0.80;;;;;;;20.93;33.34;97216.97;6157800;23;20121;-81
2022/09/20 11:37:57;;;;;;;3.78;1.00;;;;;;;20.56;36.08;97217.97;6158017;23;20100;-81
2022/09/20 11:40:28;;;;;;;3.75;1.00;;;;;;;20.61;34.77;97214.66;6156332;23;20092;-81
2022/09/20 11:42:58;;;;;;;2.60;0.90;;;;;;;22.38;36.32;97206.94;6157317;23;20026;-81
2022/09/20 11:45:29;;;;;;;3.45;0.80;;;;;;;24.63;30.20;97208.66;6157204;23;20024;-81
2022/09/20 11:48:03;;;;;;;3.05;1.00;;;;;;;26.54;27.22;97208.13;6157467;23;20077;-81
2022/09/20 11:51:13;;;;;;;1.80;0.80;;;;;;;28.34;24.71;97200.91;6156486;23;20549;-81
2022/09/20 11:53:57;;;;;;;3.13;0.70;;;;;;;29.90;23.03;97210.44;6156575;23;20026;-81
2022/09/20 11:56:27;;;;;;;3.45;0.80;;;;;;;30.78;21.96;97216.00;6157105;23;20032;-80
2022/09/20 11:58:57;;;;;;;2.28;0.65;;;;;;;31.49;20.40;97213.06;6156268;23;20029;-80
2022/09/20 12:01:29;;;;;;;1.73;0.45;;;;;;;32.02;19.32;97204.31;6154883;23;20021;-81
2022/09/20 12:03:59;;;;;;;7.22;1.02;;;;;;;32.45;19.59;97194.94;6156652;23;20018;-81
2022/09/20 12:06:47;;;;;;;3.78;0.60;;;;;;;32.39;19.23;97196.16;6156640;23;20401;-81
2022/09/20 12:09:25;;;;;;;5.25;0.50;;;;;;;31.05;20.14;97198.31;6158602;23;20025;-81
2022/09/20 12:11:53;;;;;;;6.95;1.13;;;;;;;29.43;21.79;97193.34;6157740;23;20041;-81
2022/09/20 12:14:26;;;;;;;3.53;0.70;;;;;;;27.84;24.04;97194.84;6159511;23;20028;-81
2022/09/20 12:16:55;;;;;;;1.90;0.60;;;;;;;26.71;26.26;97186.47;6158696;23;20031;-81
2022/09/20 12:19:37;;;;;;;2.78;0.85;;;;;;;25.73;27.79;97179.50;6159269;23;20445;-80
2022/09/20 12:22:28;;;;;;;2.53;0.80;;;;;;;24.81;28.40;97182.63;6157977;23;20025;-81
2022/09/20 12:25:33;;;;;;;2.28;0.63;;;;;;;23.90;29.19;97178.22;6158614;23;20469;-80
2022/09/20 12:28:01;;;;;;;5.20;0.93;;;;;;;23.11;30.12;97180.31;6159057;23;20018;-81
2022/09/20 12:30:28;;;;;;;1.80;0.70;;;;;;;22.45;31.21;97185.50;6158230;23;20109;-82
2022/09/20 12:33:00;;;;;;;4.60;0.60;;;;;;;21.86;32.09;97185.06;6158583;23;20028;-81
2022/09/20 12:35:59;;;;;;;3.23;0.83;;;;;;;21.28;32.58;97174.44;6157272;23;20029;-79
2022/09/20 12:38:36;;;;;;;2.95;0.85;;;;;;;20.87;35.25;97181.56;6158039;23;20024;-80
2022/09/20 12:41:08;;;;;;;2.30;0.70;;;;;;;20.47;33.14;97182.25;6156778;23;20025;-80
2022/09/20 12:43:46;;;;;;;2.25;0.60;;;;;;;20.08;33.95;97187.19;6158463;23;20021;-79
2022/09/20 12:46:23;;;;;;;3.22;0.80;;;;;;;19.80;36.45;97187.00;6157063;23;20026;-80
2022/09/20 12:52:49;;;;;;;2.25;0.80;;;;;;;19.51;36.40;97189.41;6158341;23;20072;-80
2022/09/20 12:54:52;;;;;;;3.47;0.80;;;;;;;18.73;38.44;97196.19;6157036;23;20163;-77
2022/09/20 12:57:30;;;;;;;4.35;0.90;;;;;;;18.36;39.42;97196.13;6161381;23;20022;-77
2022/09/20 13:00:01;;;;;;;2.75;0.60;;;;;;;18.04;41.13;97190.09;6160883;23;20021;-76
2022/09/20 13:02:56;;;;;;;2.20;0.73;;;;;;;17.75;40.92;97191.47;6129016;23;20028;-77
2022/09/20 13:05:35;;;;;;;2.03;0.80;;;;;;;17.49;42.56;97185.31;6127744;23;20032;-77
2022/09/20 13:08:10;;;;;;;6.07;0.98;;;;;;;17.30;41.87;97182.56;6126724;23;20102;-77
2022/09/20 13:10:43;;;;;;;5.40;0.80;;;;;;;17.10;42.48;97181.88;6126560;23;20022;-77
2022/09/20 13:13:28;;;;;;;2.85;1.02;;;;;;;16.93;42.71;97183.34;6128473;23;20022;-77
2022/09/20 13:15:56;;;;;;;1.70;0.63;;;;;;;16.84;44.21;97183.56;6127420;23;20022;-78
2022/09/20 13:18:26;;;;;;;1.67;0.50;;;;;;;16.81;43.69;97180.53;6127277;23;20025;-77
2022/09/20 13:20:59;;;;;;;2.80;0.80;;;;;;;16.82;44.41;97182.97;6127800;23;20026;-76
2022/09/20 13:23:27;;;;;;;;;;;;;;;16.88;44.36;97182.13;6130062;23;20121;-78
2022/09/20 13:25:57;;;;;;;3.28;0.70;;;;;;;16.81;43.19;97175.25;6128797;23;20261;-76
2022/09/20 13:28:32;;;;;;;2.17;0.47;;;;;;;16.71;42.54;97180.94;6129081;23;20019;-76
2022/09/20 13:31:32;;;;;;;1.52;0.50;;;;;;;16.64;43.29;97186.22;6126001;23;20045;-76
2022/09/20 13:34:13;;;;;;;2.75;0.82;;;;;;;16.59;42.60;97187.84;6126350;23;20026;-77
2022/09/20 13:36:43;;;;;;;0.98;0.43;;;;;;;16.52;42.56;97182.56;6128133;23;20028;-76
2022/09/20 13:39:24;;;;;;;3.50;0.50;;;;;;;16.45;44.09;97187.06;6131230;23;20025;-76
2022/09/20 13:41:52;;;;;;;0.43;0.30;;;;;;;16.37;43.99;97190.69;6130622;23;20036;-75
2022/09/20 13:44:19;;;;;;;1.05;0.57;;;;;;;16.26;43.13;97181.59;6128958;23;20032;-75
2022/09/20 13:46:47;;;;;;;1.38;0.43;;;;;;;16.24;43.31;97174.91;6130746;23;20108;-75
2022/09/20 13:49:19;;;;;;;3.20;0.32;;;;;;;16.19;43.10;97191.31;6128022;23;20473;-76
2022/09/20 13:51:48;;;;;;;1.13;0.28;;;;;;;16.14;43.66;97187.69;6125535;23;20585;-76
2022/09/20 13:54:26;;;;;;;1.02;0.50;;;;;;;16.09;43.14;97177.75;6128695;23;20026;-76
2022/09/20 13:56:55;;;;;;;1.52;0.30;;;;;;;16.06;43.19;97173.69;6130886;23;20095;-76
2022/09/20 13:59:23;;;;;;;1.95;0.30;;;;;;;16.08;44.57;97180.59;6129935;23;20028;-76
2022/09/20 14:01:53;;;;;;;1.65;0.30;;;;;;;16.10;44.24;97175.94;6127674;23;20033;-75
2022/09/20 14:04:24;;;;;;;1.55;0.30;;;;;;;16.12;44.29;97176.56;6126930;23;20076;-75
2022/09/20 14:06:56;;;;;;;1.48;0.50;;;;;;;16.12;43.97;97176.56;6125038;23;20105;-76
2022/09/20 14:09:29;;;;;;;1.35;0.25;;;;;;;16.14;44.75;97175.31;6124604;23;20458;-75
2022/09/20 14:11:58;;;;;;;1.90;0.60;;;;;;;16.19;42.83;97185.25;6124291;23;20026;-76
2022/09/20 14:14:26;;;;;;;0.40;0.10;;;;;;;16.18;42.74;97181.81;6125655;23;20105;-75
2022/09/20 14:16:56;;;;;;;1.05;0.20;;;;;;;16.09;42.01;97172.47;6124980;23;20101;-75
2022/09/20 14:19:30;;;;;;;0.75;0.10;;;;;;;16.03;45.07;97174.09;6128168;23;20056;-75
2022/09/20 14:22:02;;;;;;;1.90;0.30;;;;;;;15.99;44.87;97177.34;6125364;23;20489;-76
2022/09/20 14:24:31;;;;;;;;;;;;;;;16.00;44.68;97165.81;6125993;23;20022;-76
2022/09/20 14:27:03;;;;;;;1.83;0.30;;;;;;;15.99;44.19;97172.09;6125421;23;20265;-76
2022/09/20 14:29:38;;;;;;;1.17;0.40;;;;;;;16.01;44.78;97172.69;6124308;23;20018;-75
2022/09/20 14:32:10;;;;;;;1.30;0.50;;;;;;;16.02;45.33;97167.22;6123946;23;20105;-75
2022/09/20 14:34:39;;;;;;;1.85;0.50;;;;;;;16.00;44.32;97177.13;6125504;23;20054;-75
2022/09/20 14:37:13;;;;;;;1.63;0.50;;;;;;;15.99;44.79;97166.81;6139628;23;20049;-76
2022/09/20 14:39:48;;;;;;;2.92;0.57;;;;;;;16.00;45.27;97169.22;6142981;23;20028;-76
2022/09/20 14:42:20;;;;;;;2.05;0.60;;;;;;;15.98;44.85;97166.03;6125925;23;20022;-75
2022/09/20 14:44:51;;;;;;;3.55;0.60;;;;;;;15.96;45.18;97162.78;6126382;23;20022;-75
2022/09/20 14:47:26;;;;;;;4.20;0.80;;;;;;;15.94;47.23;97170.06;6126007;23;20355;-75
2022/09/20 14:49:54;;;;;;;3.03;1.00;;;;;;;15.92;47.58;97164.19;6125004;23;20018;-75
2022/09/20 14:52:42;;;;;;;3.00;0.68;;;;;;;15.89;47.60;97169.03;6125843;23;20493;-75
2022/09/20 14:55:20;;;;;;;2.20;0.60;;;;;;;15.86;47.88;97173.69;6127466;23;20021;-76
2022/09/20 14:57:48;;;;;;;3.97;0.70;;;;;;;15.83;47.58;97173.28;6126042;23;20025;-75
2022/09/20 15:00:18;;;;;;;3.45;0.93;;;;;;;15.80;47.94;97176.31;6125281;23;20018;-76
2022/09/20 15:02:47;;;;;;;3.05;0.95;;;;;;;15.79;46.84;97177.34;6124780;23;20030;-75
2022/09/20 15:05:20;;;;;;;1.95;0.80;;;;;;;15.77;48.09;97174.09;6124803;23;20026;-75
2022/09/20 15:07:49;;;;;;;4.03;0.80;;;;;;;15.75;46.83;97166.41;6124988;23;20018;-75
2022/09/20 15:10:17;;;;;;;3.13;0.60;;;;;;;15.76;47.60;97172.47;6124466;23;20712;-75
2022/09/20 15:12:44;;;;;;;1.63;0.60;;;;;;;15.77;46.96;97168.84;6125808;23;20037;-75
2022/09/20 15:15:17;;;;;;;1.55;0.80;;;;;;;15.80;47.40;97168.41;6124741;23;20427;-75
2022/09/20 15:17:46;;;;;;;1.63;0.63;;;;;;;15.83;47.22;97174.09;6124633;23;20028;-75
2022/09/20 15:20:17;;;;;;;3.65;0.68;;;;;;;15.83;49.44;97179.38;6123628;23;20365;-75
2022/09/20 15:22:51;;;;;;;3.58;0.90;;;;;;;15.78;48.21;97175.69;6124755;23;20419;-74
2022/09/20 15:25:21;;;;;;;2.42;0.60;;;;;;;15.75;48.10;97176.91;6124900;23;20057;-74
2022/09/20 15:27:50;;;;;;;1.48;0.70;;;;;;;15.70;46.76;97179.31;6125057;23;20022;-75
2022/09/20 15:30:19;;;;;;;2.30;0.60;;;;;;;15.63;48.17;97179.31;6123360;23;20489;-76
2022/09/20 15:32:47;;;;;;;2.58;0.70;;;;;;;15.57;47.47;97174.03;6129516;23;20409;-76
2022/09/20 15:35:15;;;;;;;3.03;0.93;;;;;;;15.51;47.26;97175.63;6126764;23;20385;-76
2022/09/20 15:37:43;;;;;;;4.10;2.10;;;;;;;15.43;47.73;97179.22;6124464;23;20026;-76
2022/09/20 15:40:12;;;;;;;9.40;5.95;;;;;;;15.36;47.60;97178.41;6123679;23;20405;-77
2022/09/20 15:42:40;;;;;;;10.38;4.07;;;;;;;15.30;48.67;97179.19;6124542;23;20028;-75
2022/09/20 15:45:10;;;;;;;9.82;3.72;;;;;;;15.28;51.83;97180.41;6124155;23;20498;-76
2022/09/20 15:47:38;;;;;;;8.70;2.67;;;;;;;15.27;50.04;97178.81;6124638;23;20022;-76
2022/09/20 15:50:08;;;;;;;6.25;2.55;;;;;;;15.23;49.18;97176.53;6123432;23;20018;-76
2022/09/20 15:52:38;;;;;;;6.80;2.72;;;;;;;15.26;52.76;97177.97;6124726;23;20113;-76
2022/09/20 15:55:07;;;;;;;5.10;2.55;;;;;;;15.31;52.46;97174.78;6126558;23;20022;-76
2022/09/20 15:57:36;;;;;;;3.70;1.48;;;;;;;15.31;49.60;97170.31;6126406;23;20518;-76
2022/09/20 16:00:04;;;;;;;2.00;1.17;;;;;;;15.28;50.87;97169.88;6125086;23;20441;-77
2022/09/20 16:02:32;;;;;;;3.08;0.90;;;;;;;15.28;50.71;97175.16;6127248;23;20018;-77
2022/09/20 16:05:00;;;;;;;2.90;0.73;;;;;;;15.25;48.94;97166.66;6126651;23;20029;-77
2022/09/20 16:07:28;;;;;;;4.88;1.25;;;;;;;15.22;48.63;97172.31;6124581;23;20026;-77
2022/09/20 16:09:56;;;;;;;3.75;2.05;;;;;;;15.19;49.29;97172.69;6124278;23;20049;-75
2022/09/20 16:12:25;;;;;;;2.05;1.02;;;;;;;15.16;48.98;97172.28;6124049;23;20022;-76
2022/09/20 16:14:54;;;;;;;4.57;2.72;;;;;;;15.14;52.89;97180.34;6124508;23;20501;-77
2022/09/20 16:19:15;;;;;;;9.02;3.58;;;;;;;15.11;51.08;97179.94;6124183;23;20501;-77
2022/09/20 16:20:08;;;;;;;8.23;3.40;;;;;;;15.04;49.55;97178.09;6123285;23;20022;-77
2022/09/20 16:22:36;;;;;;;10.45;4.38;;;;;;;14.98;50.42;97181.50;6124020;23;20075;-76
2022/09/20 16:25:05;;;;;;;5.05;2.17;;;;;;;14.95;50.88;97178.44;6124348;23;20089;-77
2022/09/20 16:27:33;;;;;;;7.10;2.42;;;;;;;14.91;50.46;97187.72;6124813;23;20413;-77
2022/09/20 16:30:03;;;;;;;3.97;1.52;;;;;;;14.90;53.45;97194.00;6123686;23;20472;-77
2022/09/20 16:32:31;;;;;;;3.33;1.10;;;;;;;14.88;53.54;97188.94;6124023;23;20018;-77
2022/09/20 16:35:00;;;;;;;2.03;0.82;;;;;;;14.85;53.63;97197.22;6124721;23;20045;-76
2022/09/20 16:37:31;;;;;;;2.78;1.10;;;;;;;14.84;51.85;97211.34;6124630;23;20032;-77
2022/09/20 16:39:59;;;;;;;182.18;122.18;;;;;;;14.82;50.81;97211.53;6123934;23;20362;-77
2022/09/20 16:42:28;;;;;;;33.58;19.58;;;;;;;14.79;50.38;97208.47;6124034;23;20014;-77
2022/09/20 16:44:56;;;;;;;8.10;4.63;;;;;;;14.72;50.22;97211.06;6124146;23;20022;-77
2022/09/20 16:47:25;;;;;;;1.70;0.93;;;;;;;14.65;52.26;97215.47;6124091;23;20034;-79